^^

..:: Storico WU ::..




Lo storico viene creato da WUnderground con i dati che la stazione Meteomincio invia al loro server. L' aggiornamento viene fatto ogni 5 minuti circa, tuttavia possono esserci intervalli pi¨ ampi a causa di errori, interruzioni di servizio o problemi nell' invio tramite FTP.


Storico stazione MeteoMincio
Giorno Sommario per Febbario 02, 2022 Unità:  Inglese    Metrico   Entrambi
Giorno Settimana Mese Anno
  Max: Min: Media:
Temperatura: 63.1 °F 31.8 °F 44.6 °F
Dew Point: 40.6 °F 26.2 °F 33.8 °F
Umidità: 87.7% 38.4% 67%
Velocità vento: 8.2mph 0mph 3mph
Raffica: 12mph - -
Direzione- - SSW
Pressione: 30 in 29.8 in -
Precipitazioni: 0 in    
 
 
Tabulato Dati per Febbario 02, 2022
Ora Temperatura Dew Point Pressione Direzione Velocità vento Raffica Umidità Intensità pioggia (oraria) Info solare Situazione
00:04 41.4 °F 28.8 °F 29.9 in West 7.5 mph 12 mph 60.8% 0 in 0 W/m2
00:09 41.5 °F 28.6 °F 29.9 in West 6.6 mph 12 mph 60% 0 in 0 W/m2
00:14 41.5 °F 28.6 °F 29.9 in West 6.8 mph 10.4 mph 60% 0 in 0 W/m2
00:19 41.5 °F 28.4 °F 29.9 in WNW 7.5 mph 10.4 mph 59.5% 0 in 0 W/m2
00:24 41.4 °F 28.2 °F 29.9 in NW 5.7 mph 10.4 mph 59.3% 0 in 0 W/m2
00:29 41 °F 28.2 °F 29.9 in WNW 5.8 mph 10 mph 60% 0 in 0 W/m2
00:34 40.6 °F 28.2 °F 29.9 in WNW 5.5 mph 9 mph 60.8% 0 in 0 W/m2
00:39 40.3 °F 28 °F 29.9 in WNW 5.7 mph 9.2 mph 61.4% 0 in 0 W/m2
00:44 40.3 °F 28.2 °F 29.9 in WNW 5.2 mph 9.2 mph 62% 0 in 0 W/m2
00:49 40.1 °F 28 °F 29.9 in WNW 4.7 mph 9 mph 62% 0 in 0 W/m2
00:54 40.1 °F 28 °F 29.9 in WNW 4.7 mph 7 mph 62% 0 in 0 W/m2
00:59 40.1 °F 28 °F 29.9 in West 3.6 mph 7 mph 62% 0 in 0 W/m2
01:04 39.4 °F 27.7 °F 29.9 in West 4.8 mph 7 mph 62.7% 0 in 0 W/m2
01:09 38.7 °F 27.3 °F 29.9 in West 4.2 mph 7 mph 63.5% 0 in 0 W/m2
01:14 38.5 °F 27.5 °F 29.9 in WSW 4.5 mph 9 mph 64.5% 0 in 0 W/m2
01:19 38.7 °F 27.5 °F 29.9 in West 5.9 mph 9.2 mph 64% 0 in 0 W/m2
01:24 39 °F 27.3 °F 29.9 in West 7.5 mph 10.4 mph 62.6% 0 in 0 W/m2
01:29 40.1 °F 27.3 °F 29.9 in West 7.2 mph 10.4 mph 60.1% 0 in 0 W/m2
01:34 40.6 °F 27.1 °F 29.9 in West 6.3 mph 10 mph 58.2% 0 in 0 W/m2
01:39 41.2 °F 27.1 °F 29.9 in West 7.3 mph 11.5 mph 56.8% 0 in 0 W/m2
01:44 41.9 °F 27 °F 29.9 in WNW 7.5 mph 12 mph 55% 0 in 0 W/m2
01:49 42.1 °F 27.1 °F 29.8 in West 7.6 mph 11.5 mph 55.2% 0 in 0 W/m2
01:54 41.5 °F 27 °F 29.8 in West 7.4 mph 12 mph 55.9% 0 in 0 W/m2
01:59 41.9 °F 26.6 °F 29.8 in WNW 8.1 mph 12 mph 54.1% 0 in 0 W/m2
02:04 43 °F 26.6 °F 29.8 in WNW 8.2 mph 12 mph 52.2% 0 in 0 W/m2
02:09 43.2 °F 26.4 °F 29.8 in WNW 6.8 mph 12 mph 51.5% 0 in 0 W/m2
02:14 42.4 °F 26.6 °F 29.8 in WNW 5.8 mph 12 mph 53.4% 0 in 0 W/m2
02:19 41.4 °F 26.4 °F 29.8 in WNW 5.2 mph 8.1 mph 55.3% 0 in 0 W/m2
02:24 40.3 °F 26.4 °F 29.8 in WNW 5.1 mph 7 mph 57.5% 0 in 0 W/m2
02:29 40.1 °F 26.6 °F 29.8 in WNW 6.1 mph 8.1 mph 58.3% 0 in 0 W/m2
02:34 39.4 °F 26.6 °F 29.8 in WNW 5.2 mph 8.1 mph 59.7% 0 in 0 W/m2
02:39 38.5 °F 26.4 °F 29.8 in West 5.4 mph 10 mph 61.6% 0 in 0 W/m2
02:44 37.8 °F 26.2 °F 29.8 in West 6.5 mph 10.4 mph 63% 0 in 0 W/m2
02:49 38.7 °F 26.4 °F 29.8 in WNW 6.6 mph 10.4 mph 61.1% 0 in 0 W/m2
02:54 39.4 °F 26.6 °F 29.8 in WNW 5.3 mph 10 mph 59.6% 0 in 0 W/m2
02:59 39.4 °F 26.6 °F 29.8 in NW 4.5 mph 8 mph 59.9% 0 in 0 W/m2
03:04 39 °F 26.6 °F 29.8 in NW 3.4 mph 7 mph 60.4% 0 in 0 W/m2
03:09 38.5 °F 26.6 °F 29.8 in NNW 3 mph 7 mph 62.2% 0 in 0 W/m2
03:14 37.9 °F 26.8 °F 29.8 in NNW 3.7 mph 7 mph 63.8% 0 in 0 W/m2
03:19 37.8 °F 26.8 °F 29.8 in North 4.3 mph 7 mph 64% 0 in 0 W/m2
03:24 38.1 °F 26.8 °F 29.8 in NNW 3.8 mph 7 mph 63.2% 0 in 0 W/m2
03:29 38.3 °F 26.6 °F 29.8 in NNW 4.2 mph 7 mph 62.4% 0 in 0 W/m2
03:34 38.8 °F 26.8 °F 29.8 in NNW 4.8 mph 8.1 mph 61.9% 0 in 0 W/m2
03:39 39.7 °F 26.8 °F 29.8 in NW 4.5 mph 8.1 mph 59.4% 0 in 0 W/m2
03:44 40.5 °F 27 °F 29.8 in NW 4 mph 8 mph 58% 0 in 0 W/m2
03:49 40.1 °F 27 °F 29.8 in NW 2.4 mph 7 mph 58.8% 0 in 0 W/m2
03:54 39.7 °F 26.8 °F 29.8 in NNW 2.2 mph 5 mph 59.6% 0 in 0 W/m2
03:59 38.1 °F 26.8 °F 29.8 in North 0.4 mph 4 mph 63.3% 0 in 0 W/m2
04:04 36.3 °F 26.6 °F 29.9 in East 1.9 mph 3.5 mph 67.5% 0 in 0 W/m2
04:09 35.2 °F 26.6 °F 29.9 in East 2.7 mph 5 mph 70.4% 0 in 0 W/m2
04:14 34.7 °F 26.4 °F 29.8 in East 1.6 mph 5 mph 71.7% 0 in 0 W/m2
04:19 34.2 °F 26.4 °F 29.8 in East 0.3 mph 3 mph 72.8% 0 in 0 W/m2
04:24 34.2 °F 26.6 °F 29.8 in East 0.7 mph 2.3 mph 73.6% 0 in 0 W/m2
04:29 34.2 °F 26.8 °F 29.8 in Calm   2 mph 74.2% 0 in 0 W/m2
04:34 34.2 °F 27 °F 29.8 in Calm     74.4% 0 in 0 W/m2
04:39 34.3 °F 27 °F 29.8 in Calm     74% 0 in 0 W/m2
04:44 34 °F 26.8 °F 29.8 in NW 0.1 mph 4 mph 74.9% 0 in 0 W/m2
04:49 34.2 °F 27 °F 29.8 in NW 1.9 mph 4 mph 74.4% 0 in 0 W/m2
04:54 34.5 °F 27 °F 29.8 in WNW 3.5 mph 6 mph 73.5% 0 in 0 W/m2
04:59 36 °F 27.5 °F 29.8 in NW 3.8 mph 6 mph 70.9% 0 in 0 W/m2
05:04 36.9 °F 27.7 °F 29.8 in NW 3.4 mph 6 mph 69% 0 in 0 W/m2
05:09 37.8 °F 27.9 °F 29.8 in WNW 4.7 mph 6 mph 67.3% 0 in 0 W/m2
05:14 39.4 °F 28 °F 29.8 in WNW 4 mph 6 mph 63.5% 0 in 0 W/m2
05:19 40.3 °F 28 °F 29.8 in WNW 3.5 mph 6 mph 61.2% 0 in 0 W/m2
05:24 39.7 °F 27.9 °F 29.8 in NW 2.2 mph 5 mph 61.9% 0 in 0 W/m2
05:29 39.2 °F 27.5 °F 29.8 in NNW 0.7 mph 5 mph 62.7% 0 in 0 W/m2
05:34 38.1 °F 27.3 °F 29.8 in NNW 0.6 mph 2.3 mph 64.8% 0 in 0 W/m2
05:39 37.2 °F 27.3 °F 29.8 in NW 1.4 mph 3.5 mph 67.2% 0 in 0 W/m2
05:44 36.3 °F 27.3 °F 29.8 in NNW 1.8 mph 3.5 mph 69.5% 0 in 0 W/m2
05:49 36.7 °F 27.3 °F 29.8 in NNW 1.9 mph 3.5 mph 68.5% 0 in 0 W/m2
05:54 36.7 °F 27.3 °F 29.8 in NNE 2 mph 3.5 mph 68.8% 0 in 0 W/m2
05:59 35.4 °F 27.1 °F 29.8 in NE 2.5 mph 4 mph 71.8% 0 in 0 W/m2
06:04 34.9 °F 27.3 °F 29.8 in NNE 2.2 mph 4 mph 73.5% 0 in 0 W/m2
06:09 34.9 °F 27.7 °F 29.8 in North 0.8 mph 3.5 mph 74.7% 0 in 0 W/m2
06:14 34.9 °F 28 °F 29.8 in Calm   3 mph 75.8% 0 in 0 W/m2
06:19 34.7 °F 28 °F 29.8 in Calm     76.1% 0 in 0 W/m2
06:24 34.2 °F 27.9 °F 29.8 in Calm     77.3% 0 in 0 W/m2
06:29 34 °F 27.9 °F 29.8 in Calm     78% 0 in 0 W/m2
06:34 33.8 °F 27.7 °F 29.8 in Calm     78.2% 0 in 0 W/m2
06:39 33.4 °F 27.7 °F 29.8 in NNE 0.8 mph 4 mph 79.1% 0 in 0 W/m2
06:44 33.6 °F 28 °F 29.8 in North 2.4 mph 4 mph 80% 0 in 0 W/m2
06:49 34 °F 28.2 °F 29.8 in NNW 1.6 mph 4 mph 79.6% 0 in 0 W/m2
06:54 33.6 °F 28 °F 29.8 in North 2.5 mph 4 mph 79.7% 0 in 0 W/m2
06:59 34.5 °F 28 °F 29.8 in North 2.5 mph 4 mph 77.1% 0 in 0 W/m2
07:04 33.4 °F 27 °F 29.8 in West 2.9 mph 5 mph 77% 0 in 0 W/m2
07:09 32.9 °F 27 °F 29.8 in WNW 1.7 mph 5 mph 78.8% 0 in 0 W/m2
07:14 33.1 °F 27.5 °F 29.8 in WNW 1.7 mph 3.5 mph 80.1% 0 in 0 W/m2
07:19 33.1 °F 27.3 °F 29.8 in WNW 1.5 mph 3 mph 78.8% 0 in 0 W/m2
07:24 32.9 °F 27.1 °F 29.8 in WNW 1.1 mph 2.3 mph 79% 0 in 0 W/m2
07:29 32.7 °F 27 °F 29.8 in WNW 1.8 mph 3.5 mph 79% 0 in 0 W/m2
07:34 32.5 °F 26.8 °F 29.9 in NW 1.4 mph 3.5 mph 79.4% 0 in 0 W/m2
07:39 32.4 °F 26.8 °F 29.9 in North 1.1 mph 3 mph 80% 0 in 5 W/m2
07:44 32.5 °F 27 °F 29.9 in North 0.9 mph 3.5 mph 79.8% 0 in 5 W/m2
07:49 32.4 °F 27 °F 29.9 in North 1.4 mph 3 mph 80% 0 in 7 W/m2
07:54 32.4 °F 27 °F 29.9 in ENE 2.2 mph 3.5 mph 80% 0 in 9 W/m2
07:59 32.4 °F 27 °F 29.9 in ENE 2.9 mph 6 mph 80.4% 0 in 12 W/m2
08:04 31.8 °F 27 °F 29.9 in ENE 1.9 mph 6 mph 82.5% 0 in 14 W/m2
08:09 31.8 °F 27.3 °F 29.9 in East 2 mph 3.5 mph 83.7% 0 in 18 W/m2
08:14 32.2 °F 27.5 °F 29.9 in East 2.2 mph 3.5 mph 83% 0 in 19 W/m2
08:19 32.2 °F 27.5 °F 29.9 in East 0.9 mph 3 mph 83% 0 in 21 W/m2
08:24 32.7 °F 28 °F 29.9 in East 1.8 mph 3.5 mph 82.8% 0 in 23 W/m2
08:29 33.6 °F 28.6 °F 29.9 in East 2 mph 5 mph 81.2% 0 in 62 W/m2
08:34 34.2 °F 28.9 °F 29.9 in East 0.6 mph 5 mph 80.7% 0 in 76 W/m2
08:39 35.4 °F 29.7 °F 29.9 in SE 0.7 mph 2.3 mph 79.1% 0 in 84 W/m2
08:44 35.8 °F 29.7 °F 29.9 in SE 0.9 mph 2.3 mph 78.5% 0 in 102 W/m2
08:49 36.5 °F 31.1 °F 29.9 in SE 0.7 mph 3.5 mph 81% 0 in 116 W/m2
08:54 37.9 °F 33.3 °F 29.9 in SE 2.6 mph 7 mph 82.6% 0 in 132 W/m2
08:59 39.9 °F 35.6 °F 29.9 in ESE 3.9 mph 7 mph 84.5% 0 in 144 W/m2
09:04 40.6 °F 36.1 °F 29.9 in ESE 3.3 mph 7 mph 84% 0 in 160 W/m2
09:09 41 °F 36.3 °F 29.9 in ESE 1 mph 7 mph 83.2% 0 in 174 W/m2
09:14 41.5 °F 36.5 °F 29.9 in ESE 2.4 mph 5 mph 82.5% 0 in 188 W/m2
09:19 41.7 °F 36.7 °F 29.9 in ESE 4.4 mph 7 mph 82% 0 in 200 W/m2
09:24 42.1 °F 36.9 °F 29.9 in SE 3.6 mph 8 mph 82% 0 in 216 W/m2
09:29 42.6 °F 37.2 °F 29.9 in ESE 2.6 mph 8 mph 81.4% 0 in 229 W/m2
09:34 43.3 °F 37.4 °F 29.9 in SE 3.3 mph 6 mph 79.9% 0 in 237 W/m2
09:39 43.9 °F 37.6 °F 29.9 in SSE 3.5 mph 6 mph 78.7% 0 in 246 W/m2
09:44 44.2 °F 37.8 °F 29.9 in SE 1.5 mph 6 mph 77.9% 0 in 260 W/m2
09:49 44.6 °F 38.1 °F 29.9 in South 1.4 mph 4 mph 77.9% 0 in 271 W/m2
09:54 44.8 °F 37.9 °F 29.9 in South 2.8 mph 5 mph 77.1% 0 in 281 W/m2
09:59 44.8 °F 37.8 °F 29.9 in South 2.2 mph 5 mph 76.3% 0 in 292 W/m2
10:04 45 °F 37.9 °F 29.9 in South 3.2 mph 5 mph 76.1% 0 in 301 W/m2
10:09 45.1 °F 37.9 °F 29.9 in SSW 3.9 mph 6 mph 75.9% 0 in 309 W/m2
10:14 45.1 °F 37.9 °F 29.9 in SSW 4.7 mph 7 mph 75.8% 0 in 320 W/m2
10:19 45.1 °F 37.9 °F 29.9 in SSW 4.1 mph 7 mph 75.7% 0 in 332 W/m2
10:24 45.9 °F 38.3 °F 29.9 in South 1.9 mph 7 mph 74.7% 0 in 339 W/m2
10:29 46.2 °F 37.6 °F 29.9 in South 3.2 mph 7 mph 71.7% 0 in 350 W/m2
10:34 46.4 °F 37.4 °F 29.9 in South 3.1 mph 7 mph 70.8% 0 in 362 W/m2
10:39 46.8 °F 36.5 °F 29.9 in SSW 1.4 mph 5 mph 67.6% 0 in 367 W/m2
10:44 46.9 °F 36.7 °F 29.9 in SW 2.4 mph 6 mph 67.3% 0 in 374 W/m2
10:49 47.1 °F 36.7 °F 29.9 in SSW 1.8 mph 6 mph 66.8% 0 in 383 W/m2
10:54 47.7 °F 36.9 °F 29.9 in WSW 1.1 mph 3.5 mph 66% 0 in 390 W/m2
10:59 47.7 °F 37 °F 29.9 in SW 1.2 mph 3.5 mph 66.5% 0 in 397 W/m2
11:04 48 °F 36.7 °F 29.9 in WSW 1.5 mph 4 mph 64.8% 0 in 404 W/m2
11:09 48.4 °F 36.3 °F 29.9 in SW 2.5 mph 4 mph 63.2% 0 in 410 W/m2
11:14 48.7 °F 36.1 °F 29.9 in West 3.1 mph 5 mph 62% 0 in 417 W/m2
11:19 49.5 °F 36.9 °F 29.9 in West 2.1 mph 5 mph 62.1% 0 in 422 W/m2
11:24 49.6 °F 36.7 °F 29.9 in West 2.1 mph 4 mph 60.8% 0 in 427 W/m2
11:29 50 °F 36.9 °F 29.9 in West 1.4 mph 6 mph 60.5% 0 in 431 W/m2
11:34 51.1 °F 36.1 °F 29.9 in WNW 3.9 mph 8.1 mph 56.4% 0 in 439 W/m2
11:39 51.6 °F 36 °F 29.9 in WNW 5.5 mph 9.2 mph 55.2% 0 in 445 W/m2
11:44 51.8 °F 36.1 °F 29.9 in West 6.9 mph 10.4 mph 55.3% 0 in 448 W/m2
11:49 52 °F 36.3 °F 29.9 in WNW 5.5 mph 10 mph 54.9% 0 in 450 W/m2
11:54 52.5 °F 37 °F 29.9 in WNW 3.5 mph 8 mph 55.1% 0 in 454 W/m2
11:59 52.9 °F 36.5 °F 29.9 in NW 4.2 mph 7 mph 53.5% 0 in 457 W/m2
12:04 53.1 °F 36.7 °F 29.9 in NW 3.1 mph 7 mph 53.5% 0 in 461 W/m2
12:09 53.2 °F 36.5 °F 29.9 in WNW 3.7 mph 8 mph 53.1% 0 in 464 W/m2
12:14 53.2 °F 36.9 °F 29.9 in NW 4.2 mph 8.1 mph 53.5% 0 in 466 W/m2
12:19 54 °F 37.6 °F 29.9 in NW 2.9 mph 8 mph 53.6% 0 in 466 W/m2
12:24 54.3 °F 37.8 °F 29.9 in NW 4 mph 8.1 mph 53.7% 0 in 468 W/m2
12:29 54.3 °F 37.9 °F 29.9 in North 3.7 mph 8 mph 53.9% 0 in 468 W/m2
12:34 54.5 °F 37.9 °F 29.9 in NNW 3.5 mph 7 mph 53.8% 0 in 468 W/m2
12:39 54.5 °F 38.7 °F 29.9 in NNW 4 mph 7 mph 54.9% 0 in 469 W/m2
12:44 55 °F 38.3 °F 29.9 in NW 3 mph 7 mph 53.3% 0 in 471 W/m2
12:49 55 °F 38.1 °F 29.9 in NW 3.7 mph 7 mph 52.8% 0 in 469 W/m2
12:54 55 °F 37.9 °F 29.9 in WNW 4.2 mph 7 mph 52.5% 0 in 469 W/m2
12:59 55.2 °F 38.1 °F 29.9 in NW 3.5 mph 6 mph 52.5% 0 in 469 W/m2
13:04 55.6 °F 38.5 °F 29.9 in NW 3.9 mph 7 mph 52.5% 0 in 468 W/m2
13:09 55.8 °F 38.3 °F 29.9 in NW 3.4 mph 7 mph 51.7% 0 in 468 W/m2
13:14 56.3 °F 38.5 °F 29.9 in NW 3 mph 7 mph 51.1% 0 in 466 W/m2
13:19 56.3 °F 38.8 °F 29.9 in NNW 3.7 mph 8 mph 51.9% 0 in 464 W/m2
13:24 56.5 °F 38.8 °F 29.9 in NNW 4.5 mph 8.1 mph 51.4% 0 in 459 W/m2
13:29 56.7 °F 39.2 °F 29.9 in NNW 4.1 mph 8 mph 51.8% 0 in 455 W/m2
13:34 57.2 °F 39.2 °F 29.9 in NW 4.2 mph 7 mph 51.2% 0 in 452 W/m2
13:39 57.2 °F 39.6 °F 29.9 in NNW 4.4 mph 7 mph 51.6% 0 in 450 W/m2
13:44 57.4 °F 39.2 °F 29.9 in NW 4.1 mph 7 mph 50.8% 0 in 445 W/m2
13:49 57.4 °F 39.9 °F 29.9 in North 4.3 mph 9 mph 51.9% 0 in 441 W/m2
13:54 57.6 °F 39.9 °F 29.9 in NNW 3 mph 9 mph 51.8% 0 in 434 W/m2
13:59 57.9 °F 39.6 °F 29.9 in NNW 3.9 mph 7 mph 50.1% 0 in 429 W/m2
14:04 57.7 °F 39.9 °F 29.9 in North 4 mph 7 mph 51.1% 0 in 424 W/m2
14:09 57.6 °F 39.9 °F 29.9 in North 5 mph 7 mph 51.5% 0 in 417 W/m2
14:14 57.7 °F 39.9 °F 29.9 in North 4.1 mph 7 mph 51.5% 0 in 411 W/m2
14:19 58.3 °F 40.3 °F 29.9 in NNW 3.8 mph 8.1 mph 51.2% 0 in 404 W/m2
14:24 59 °F 40.3 °F 29.9 in North 4.4 mph 7 mph 50% 0 in 397 W/m2
14:29 59 °F 40.1 °F 29.9 in NNE 4.3 mph 8.1 mph 49.7% 0 in 390 W/m2
14:34 59 °F 40.5 °F 29.9 in NNE 5.2 mph 8.1 mph 49.8% 0 in 380 W/m2
14:39 59.2 °F 40.1 °F 29.9 in NNE 3.4 mph 8 mph 49.1% 0 in 373 W/m2
14:44 59.5 °F 39.9 °F 29.9 in NE 3.5 mph 7 mph 48.1% 0 in 364 W/m2
14:49 60.1 °F 39.7 °F 29.9 in NNE 3.4 mph 7 mph 47.1% 0 in 357 W/m2
14:54 59.9 °F 39 °F 29.9 in NNE 2.7 mph 5 mph 45.9% 0 in 346 W/m2
14:59 60.1 °F 39.2 °F 29.9 in NNE 2.1 mph 5 mph 46.2% 0 in 338 W/m2
15:04 60.1 °F 39 °F 29.9 in NE 1.1 mph 5 mph 45.5% 0 in 327 W/m2
15:09 61.3 °F 39.2 °F 29.9 in NNW 1.6 mph 4 mph 44% 0 in 316 W/m2
15:14 62.1 °F 39.2 °F 29.9 in NNW 2.5 mph 5 mph 43.2% 0 in 308 W/m2
15:19 62.1 °F 38.8 °F 29.9 in NNW 2.9 mph 5 mph 42.4% 0 in 299 W/m2
15:24 62.6 °F 38.7 °F 29.9 in NW 2.7 mph 5 mph 41.3% 0 in 290 W/m2
15:29 63.1 °F 38.1 °F 29.9 in NW 2.5 mph 5 mph 39.7% 0 in 279 W/m2
15:34 63.1 °F 38.1 °F 29.9 in WNW 3.4 mph 6 mph 39.7% 0 in 267 W/m2
15:39 63 °F 37.2 °F 29.9 in WNW 4 mph 6 mph 38.4% 0 in 258 W/m2
15:44 63 °F 38.7 °F 29.9 in North 2.9 mph 6 mph 40.8% 0 in 246 W/m2
15:49 61.5 °F 40.1 °F 29.9 in ENE 4 mph 8 mph 45.3% 0 in 232 W/m2
15:54 60.6 °F 40.3 °F 29.9 in ESE 4.3 mph 8.1 mph 46.9% 0 in 218 W/m2
15:59 60.1 °F 40.1 °F 29.9 in ESE 1.6 mph 8 mph 47.5% 0 in 206 W/m2
16:04 59.7 °F 40.5 °F 29.9 in SSE 1.6 mph 4 mph 48.9% 0 in 190 W/m2
16:09 59.5 °F 40.5 °F 29.9 in SSE 1.6 mph 4 mph 49.3% 0 in 176 W/m2
16:14 59.5 °F 40.3 °F 29.9 in SSW 1.7 mph 3.5 mph 49% 0 in 162 W/m2
16:19 59.7 °F 40.5 °F 29.9 in SSW 1.8 mph 3.5 mph 49% 0 in 137 W/m2
16:24 58.8 °F 40.1 °F 29.9 in SE 2.1 mph 3.5 mph 49.6% 0 in 130 W/m2
16:29 59 °F 40.5 °F 29.9 in ESE 4.2 mph 10.4 mph 50.2% 0 in 105 W/m2
16:34 58.8 °F 40.6 °F 29.9 in ESE 2.3 mph 10 mph 50.7% 0 in 28 W/m2
16:39 58.5 °F 40.3 °F 29.9 in ESE 2.7 mph 4 mph 51% 0 in 26 W/m2
16:44 58.1 °F 40.3 °F 29.9 in ESE 2.9 mph 4 mph 51.7% 0 in 25 W/m2
16:49 57.6 °F 40.1 °F 29.9 in ESE 2.9 mph 4 mph 52.2% 0 in 23 W/m2
16:54 57.4 °F 39.9 °F 29.9 in ESE 2.2 mph 4 mph 52.2% 0 in 21 W/m2
16:59 57 °F 40.5 °F 29.9 in ENE 2.2 mph 4 mph 53.8% 0 in 19 W/m2
17:04 56.7 °F 40.3 °F 29.9 in East 2.9 mph 5 mph 54% 0 in 16 W/m2
17:09 56.5 °F 40.3 °F 29.9 in ENE 1.8 mph 5 mph 54.6% 0 in 14 W/m2
17:14 55.4 °F 40.3 °F 29.9 in ENE 0.1 mph 3 mph 56.7% 0 in 12 W/m2
17:19 54.3 °F 40.3 °F 29.9 in Calm   1.2 mph 58.8% 0 in 9 W/m2
17:24 54 °F 40.3 °F 29.9 in Calm     59.8% 0 in 7 W/m2
17:29 53.2 °F 40.1 °F 29.9 in ENE 0.3 mph 2.3 mph 60.8% 0 in 0 W/m2
17:34 52 °F 40.1 °F 29.9 in ENE 1.9 mph 3.5 mph 63.8% 0 in 0 W/m2
17:39 51.4 °F 40.1 °F 29.9 in ENE 2 mph 3.5 mph 65.1% 0 in 0 W/m2
17:44 50.9 °F 39.9 °F 29.9 in ENE 2.4 mph 3.5 mph 66% 0 in 0 W/m2
17:49 50.9 °F 39.9 °F 29.9 in ENE 0.6 mph 3.5 mph 65.8% 0 in 0 W/m2
17:54 50.7 °F 39.7 °F 29.9 in ENE 2.4 mph 4 mph 66% 0 in 0 W/m2
17:59 50.4 °F 39.6 °F 29.9 in NE 2.3 mph 4 mph 66.4% 0 in 0 W/m2
18:04 50.4 °F 39.6 °F 29.9 in NNE 2.2 mph 3.5 mph 66.1% 0 in 0 W/m2
18:09 50.2 °F 39.4 °F 29.9 in NE 3.1 mph 5 mph 66.4% 0 in 0 W/m2
18:14 50 °F 39.2 °F 29.9 in NE 3.9 mph 7 mph 66.1% 0 in 0 W/m2
18:19 50.5 °F 39.2 °F 29.9 in NE 5 mph 9 mph 64.8% 0 in 0 W/m2
18:24 50.9 °F 38.8 °F 29.9 in ENE 6.5 mph 10.4 mph 63.4% 0 in 0 W/m2
18:29 50.9 °F 38.8 °F 29.9 in ENE 4.8 mph 10 mph 63.2% 0 in 0 W/m2
18:34 50.7 °F 39 °F 29.9 in ENE 5.3 mph 9.2 mph 64.1% 0 in 0 W/m2
18:39 50.2 °F 38.8 °F 29.9 in ENE 6.3 mph 10 mph 65% 0 in 0 W/m2
18:44 49.6 °F 38.7 °F 29.9 in ENE 6.8 mph 10.4 mph 65.9% 0 in 0 W/m2
18:49 49.1 °F 38.7 °F 29.9 in ENE 6 mph 10 mph 67% 0 in 0 W/m2
18:54 48.7 °F 38.5 °F 29.9 in East 5.4 mph 8 mph 67.8% 0 in 0 W/m2
18:59 48.2 °F 38.5 °F 29.9 in ENE 4.5 mph 7 mph 68.7% 0 in 0 W/m2
19:04 47.8 °F 38.3 °F 29.9 in ENE 4.3 mph 7 mph 69% 0 in 0 W/m2
19:09 47.8 °F 38.5 °F 29.9 in East 3.9 mph 7 mph 69.9% 0 in 0 W/m2
19:14 47.7 °F 38.3 °F 29.9 in East 4.1 mph 7 mph 70% 0 in 0 W/m2
19:19 46.9 °F 37.9 °F 29.9 in East 3.1 mph 7 mph 71% 0 in 0 W/m2
19:24 46.8 °F 38.1 °F 29.9 in East 2 mph 5 mph 71.7% 0 in 0 W/m2
19:29 46.2 °F 37.9 °F 30 in East 0.4 mph 5 mph 72.7% 0 in 0 W/m2
19:34 45.5 °F 37.8 °F 30 in NE 1.7 mph 3.5 mph 73.8% 0 in 0 W/m2
19:39 45.1 °F 37.6 °F 30 in NE 1.2 mph 3 mph 74.8% 0 in 0 W/m2
19:44 44.8 °F 37.4 °F 30 in NNE 1 mph 2.3 mph 75% 0 in 0 W/m2
19:49 44.4 °F 37.4 °F 30 in NNE 1.6 mph 3 mph 76.2% 0 in 0 W/m2
19:54 44.4 °F 37.4 °F 30 in NE 2.1 mph 3.5 mph 76.2% 0 in 0 W/m2
19:59 44.2 °F 37.6 °F 30 in ENE 1.5 mph 3.5 mph 77% 0 in 0 W/m2
20:04 44.2 °F 37.4 °F 30 in ENE 3.5 mph 5 mph 77% 0 in 0 W/m2
20:09 44.6 °F 37.6 °F 30 in ENE 1.5 mph 5 mph 76.5% 0 in 0 W/m2
20:14 44.1 °F 37.2 °F 30 in NE 1.1 mph 3 mph 76.9% 0 in 0 W/m2
20:19 43.7 °F 37.2 °F 30 in NE 3 mph 5 mph 78% 0 in 0 W/m2
20:24 44.1 °F 37.4 °F 30 in NE 3.9 mph 5 mph 77.7% 0 in 0 W/m2
20:29 44.4 °F 37.6 °F 30 in NE 3.6 mph 5 mph 76.8% 0 in 0 W/m2
20:34 44.4 °F 37.4 °F 30 in NE 2.9 mph 5 mph 76.3% 0 in 0 W/m2
20:39 44.4 °F 37.6 °F 30 in NE 3 mph 5 mph 77% 0 in 0 W/m2
20:44 44.2 °F 37.4 °F 30 in NE 3.7 mph 5 mph 77% 0 in 0 W/m2
20:49 44.2 °F 37.4 °F 30 in NNE 3.1 mph 5 mph 77% 0 in 0 W/m2
20:54 43.9 °F 37.4 °F 30 in NNE 1.9 mph 5 mph 77.4% 0 in 0 W/m2
20:59 43.2 °F 36.9 °F 30 in NE 0.9 mph 3 mph 78.2% 0 in 0 W/m2
21:04 41.9 °F 35.8 °F 30 in NE 0.4 mph 2 mph 78.5% 0 in 0 W/m2
21:09 41.2 °F 35.6 °F 30 in North 0.9 mph 3 mph 80.4% 0 in 0 W/m2
21:14 41 °F 35.4 °F 30 in North 1.7 mph 3.5 mph 80.9% 0 in 0 W/m2
21:19 39.7 °F 34.2 °F 30 in West 2 mph 3.5 mph 80.1% 0 in 0 W/m2
21:24 38.1 °F 33.1 °F 30 in WNW 2.6 mph 3.5 mph 81.5% 0 in 0 W/m2
21:29 38.3 °F 33.8 °F 30 in NW 2 mph 3.5 mph 83.8% 0 in 0 W/m2
21:34 39 °F 34.7 °F 30 in NNW 2.1 mph 3.5 mph 84% 0 in 0 W/m2
21:39 39.7 °F 35.1 °F 30 in NNW 1.7 mph 3.5 mph 83.3% 0 in 0 W/m2
21:44 39.4 °F 34.5 °F 30 in NNW 2.4 mph 4 mph 82.9% 0 in 0 W/m2
21:49 39.4 °F 34.9 °F 30 in North 2.9 mph 4 mph 83.8% 0 in 0 W/m2
21:54 39.7 °F 35.2 °F 30 in North 1.9 mph 4 mph 83.8% 0 in 0 W/m2
21:59 39.6 °F 34.9 °F 30 in NNW 2.3 mph 4 mph 83.1% 0 in 0 W/m2
22:04 39 °F 34.5 °F 30 in North 2.8 mph 4 mph 83.5% 0 in 0 W/m2
22:09 39.4 °F 35.1 °F 30 in NNW 2.5 mph 4 mph 84% 0 in 0 W/m2
22:14 39.2 °F 34.5 °F 30 in North 2.7 mph 4 mph 82.7% 0 in 0 W/m2
22:19 38.7 °F 34.2 °F 30 in North 1.9 mph 3.5 mph 83.4% 0 in 0 W/m2
22:24 38.7 °F 34.2 °F 30 in NNW 2.5 mph 3.5 mph 83.7% 0 in 0 W/m2
22:29 39.4 °F 35.2 °F 30 in North 2.7 mph 4 mph 85.1% 0 in 0 W/m2
22:34 39.9 °F 35.4 °F 30 in North 2.1 mph 4 mph 84.1% 0 in 0 W/m2
22:39 39.2 °F 34.5 °F 30 in NNE 1.7 mph 3.5 mph 83.4% 0 in 0 W/m2
22:44 38.7 °F 34.2 °F 30 in NNE 1.3 mph 3 mph 84% 0 in 0 W/m2
22:49 37.9 °F 33.4 °F 30 in NNE 1.1 mph 2.3 mph 84% 0 in 0 W/m2
22:54 37.2 °F 32.9 °F 30 in NNW 1.2 mph 2.3 mph 84.3% 0 in 0 W/m2
22:59 37.2 °F 33.1 °F 30 in NNW 1.6 mph 3.5 mph 85% 0 in 0 W/m2
23:04 36.9 °F 32.7 °F 30 in NW 2.1 mph 3.5 mph 84.7% 0 in 0 W/m2
23:09 36.7 °F 32.5 °F 30 in NW 1.9 mph 3.5 mph 85.2% 0 in 0 W/m2
23:14 36.7 °F 32.7 °F 30 in NW 1.9 mph 3.5 mph 85.8% 0 in 0 W/m2
23:19 37 °F 33.1 °F 30 in NW 1.7 mph 3.5 mph 85.6% 0 in 0 W/m2
23:24 37 °F 32.9 °F 30 in NW 1.7 mph 3.5 mph 85.2% 0 in 0 W/m2
23:29 36.3 °F 32.2 °F 30 in NW 1 mph 3 mph 85% 0 in 0 W/m2
23:34 35.8 °F 31.8 °F 30 in NW 0.7 mph 3 mph 85.6% 0 in 0 W/m2
23:39 35.6 °F 32 °F 30 in WNW 1.4 mph 3.5 mph 86.5% 0 in 0 W/m2
23:44 36 °F 32.4 °F 30 in NW 1.3 mph 3 mph 87% 0 in 0 W/m2
23:49 36.5 °F 33.3 °F 30 in NNE 1.4 mph 3.5 mph 87.7% 0 in 0 W/m2
23:54 36.9 °F 33.1 °F 30 in NNE 2.2 mph 3.5 mph 86.4% 0 in 0 W/m2
23:59 37.2 °F 33.6 °F 30 in NNE 2.4 mph 3.5 mph 86.2% 0 in 0 W/m2
Stazione Meteorologica MeteoMincio Rivalta s/M (MN)
Con i complimenti di Weather Underground - 4 mb


METEO PILLOLE
Maggior quantità di pioggia caduta in 48 ore
Cherrapunji (1313 m) - India
Tra il 15 e 16 giugno 1995 caddero 2493mm di pioggia.

Do NOT follow this link or you will be banned from the site!